sensor_id;sensor_type;location;lat;lon;timestamp;temperature;humidity
39997;DHT22;25688;52.338;21.072;2023-05-10T00:02:07;2.20;99.90
39997;DHT22;25688;52.338;21.072;2023-05-10T00:04:32;2.10;99.90
39997;DHT22;25688;52.338;21.072;2023-05-10T00:06:58;2.10;99.90
39997;DHT22;25688;52.338;21.072;2023-05-10T00:09:23;2.00;99.90
39997;DHT22;25688;52.338;21.072;2023-05-10T00:11:49;1.90;99.90
39997;DHT22;25688;52.338;21.072;2023-05-10T00:14:15;1.90;99.90
39997;DHT22;25688;52.338;21.072;2023-05-10T00:16:41;1.80;99.90
39997;DHT22;25688;52.338;21.072;2023-05-10T00:19:06;1.70;99.90
39997;DHT22;25688;52.338;21.072;2023-05-10T00:21:32;1.70;99.90
39997;DHT22;25688;52.338;21.072;2023-05-10T00:23:59;1.60;99.90
39997;DHT22;25688;52.338;21.072;2023-05-10T00:26:25;1.50;99.90
39997;DHT22;25688;52.338;21.072;2023-05-10T00:28:51;1.50;99.90
39997;DHT22;25688;52.338;21.072;2023-05-10T00:31:16;1.50;99.90
39997;DHT22;25688;52.338;21.072;2023-05-10T00:33:42;1.50;99.90
39997;DHT22;25688;52.338;21.072;2023-05-10T00:36:08;1.40;99.90
39997;DHT22;25688;52.338;21.072;2023-05-10T00:38:34;1.40;99.90
39997;DHT22;25688;52.338;21.072;2023-05-10T00:41:00;1.40;99.90
39997;DHT22;25688;52.338;21.072;2023-05-10T00:43:25;1.50;99.90
39997;DHT22;25688;52.338;21.072;2023-05-10T00:45:52;1.40;99.90
39997;DHT22;25688;52.338;21.072;2023-05-10T00:48:21;1.30;99.90
39997;DHT22;25688;52.338;21.072;2023-05-10T00:50:47;1.30;99.90
39997;DHT22;25688;52.338;21.072;2023-05-10T00:53:14;1.30;99.90
39997;DHT22;25688;52.338;21.072;2023-05-10T00:55:40;1.30;99.90
39997;DHT22;25688;52.338;21.072;2023-05-10T00:58:05;1.30;99.90
39997;DHT22;25688;52.338;21.072;2023-05-10T01:00:33;1.20;99.90
39997;DHT22;25688;52.338;21.072;2023-05-10T01:02:58;1.20;99.90
39997;DHT22;25688;52.338;21.072;2023-05-10T01:05:24;1.20;99.90
39997;DHT22;25688;52.338;21.072;2023-05-10T01:07:51;1.20;99.90
39997;DHT22;25688;52.338;21.072;2023-05-10T01:10:16;1.10;99.90
39997;DHT22;25688;52.338;21.072;2023-05-10T01:12:44;1.00;99.90
39997;DHT22;25688;52.338;21.072;2023-05-10T01:15:11;1.00;99.90
39997;DHT22;25688;52.338;21.072;2023-05-10T01:17:40;1.00;99.90
39997;DHT22;25688;52.338;21.072;2023-05-10T01:20:08;1.00;99.90
39997;DHT22;25688;52.338;21.072;2023-05-10T01:22:56;0.90;99.90
39997;DHT22;25688;52.338;21.072;2023-05-10T01:26:14;0.90;99.90
39997;DHT22;25688;52.338;21.072;2023-05-10T01:29:37;0.90;99.90
39997;DHT22;25688;52.338;21.072;2023-05-10T01:35:03;0.90;99.90
39997;DHT22;25688;52.338;21.072;2023-05-10T01:37:40;0.90;99.90
39997;DHT22;25688;52.338;21.072;2023-05-10T01:40:25;0.90;99.90
39997;DHT22;25688;52.338;21.072;2023-05-10T01:42:54;0.90;99.90
39997;DHT22;25688;52.338;21.072;2023-05-10T01:47:58;0.80;99.90
39997;DHT22;25688;52.338;21.072;2023-05-10T01:50:29;0.90;99.90
39997;DHT22;25688;52.338;21.072;2023-05-10T01:52:57;0.80;99.90
39997;DHT22;25688;52.338;21.072;2023-05-10T01:55:27;0.80;99.90
39997;DHT22;25688;52.338;21.072;2023-05-10T01:58:13;0.80;99.90
39997;DHT22;25688;52.338;21.072;2023-05-10T02:00:49;0.80;99.90
39997;DHT22;25688;52.338;21.072;2023-05-10T02:03:16;0.80;99.90
39997;DHT22;25688;52.338;21.072;2023-05-10T02:05:45;0.80;99.90
39997;DHT22;25688;52.338;21.072;2023-05-10T02:08:12;0.70;99.90
39997;DHT22;25688;52.338;21.072;2023-05-10T02:10:39;0.70;99.90
39997;DHT22;25688;52.338;21.072;2023-05-10T02:13:07;0.70;99.90
39997;DHT22;25688;52.338;21.072;2023-05-10T02:15:34;0.70;99.90
39997;DHT22;25688;52.338;21.072;2023-05-10T02:18:02;0.70;99.90
39997;DHT22;25688;52.338;21.072;2023-05-10T02:20:30;0.70;99.90
39997;DHT22;25688;52.338;21.072;2023-05-10T02:22:57;0.80;99.90
39997;DHT22;25688;52.338;21.072;2023-05-10T02:25:24;0.80;99.90
39997;DHT22;25688;52.338;21.072;2023-05-10T02:27:52;0.70;99.90
39997;DHT22;25688;52.338;21.072;2023-05-10T02:30:19;0.80;99.90
39997;DHT22;25688;52.338;21.072;2023-05-10T02:32:47;0.70;99.90
39997;DHT22;25688;52.338;21.072;2023-05-10T02:35:14;0.70;99.90
39997;DHT22;25688;52.338;21.072;2023-05-10T02:37:41;0.60;99.90
39997;DHT22;25688;52.338;21.072;2023-05-10T02:40:08;0.60;99.90
39997;DHT22;25688;52.338;21.072;2023-05-10T02:42:36;0.60;99.90
39997;DHT22;25688;52.338;21.072;2023-05-10T02:45:07;0.60;99.90
39997;DHT22;25688;52.338;21.072;2023-05-10T02:47:33;0.50;99.90
39997;DHT22;25688;52.338;21.072;2023-05-10T02:49:59;0.40;99.90
39997;DHT22;25688;52.338;21.072;2023-05-10T02:52:28;0.40;99.90
39997;DHT22;25688;52.338;21.072;2023-05-10T02:54:56;0.40;99.90
39997;DHT22;25688;52.338;21.072;2023-05-10T02:57:29;0.40;99.90
39997;DHT22;25688;52.338;21.072;2023-05-10T02:59:57;0.40;99.90
39997;DHT22;25688;52.338;21.072;2023-05-10T03:02:23;0.40;99.90
39997;DHT22;25688;52.338;21.072;2023-05-10T03:04:49;0.40;99.90
39997;DHT22;25688;52.338;21.072;2023-05-10T03:07:15;0.40;99.90
39997;DHT22;25688;52.338;21.072;2023-05-10T03:09:42;0.40;99.90
39997;DHT22;25688;52.338;21.072;2023-05-10T03:17:29;0.40;99.90
39997;DHT22;25688;52.338;21.072;2023-05-10T03:19:56;0.50;99.90
39997;DHT22;25688;52.338;21.072;2023-05-10T03:22:34;0.50;99.90
39997;DHT22;25688;52.338;21.072;2023-05-10T03:25:05;0.50;99.90
39997;DHT22;25688;52.338;21.072;2023-05-10T03:27:32;0.60;99.90
39997;DHT22;25688;52.338;21.072;2023-05-10T03:29:59;0.60;99.90
39997;DHT22;25688;52.338;21.072;2023-05-10T03:32:28;0.70;99.90
39997;DHT22;25688;52.338;21.072;2023-05-10T03:34:55;0.70;99.90
39997;DHT22;25688;52.338;21.072;2023-05-10T03:37:21;0.80;99.90
39997;DHT22;25688;52.338;21.072;2023-05-10T03:39:46;0.90;99.90
39997;DHT22;25688;52.338;21.072;2023-05-10T03:42:12;0.90;99.90
39997;DHT22;25688;52.338;21.072;2023-05-10T03:44:41;1.00;99.90
39997;DHT22;25688;52.338;21.072;2023-05-10T03:47:06;1.10;99.90
39997;DHT22;25688;52.338;21.072;2023-05-10T03:49:32;1.20;99.90
39997;DHT22;25688;52.338;21.072;2023-05-10T03:51:58;1.40;99.90
39997;DHT22;25688;52.338;21.072;2023-05-10T03:54:24;1.50;99.90
39997;DHT22;25688;52.338;21.072;2023-05-10T03:56:49;1.70;99.90
39997;DHT22;25688;52.338;21.072;2023-05-10T03:59:15;2.00;99.90
39997;DHT22;25688;52.338;21.072;2023-05-10T04:01:41;2.30;99.90
39997;DHT22;25688;52.338;21.072;2023-05-10T04:04:06;2.60;99.90
39997;DHT22;25688;52.338;21.072;2023-05-10T04:06:32;2.90;99.90
39997;DHT22;25688;52.338;21.072;2023-05-10T04:08:58;3.20;99.90
39997;DHT22;25688;52.338;21.072;2023-05-10T04:11:26;3.40;99.90
39997;DHT22;25688;52.338;21.072;2023-05-10T04:13:51;3.70;99.90
39997;DHT22;25688;52.338;21.072;2023-05-10T04:16:17;4.00;99.90
39997;DHT22;25688;52.338;21.072;2023-05-10T04:18:43;4.20;99.90
39997;DHT22;25688;52.338;21.072;2023-05-10T04:21:12;4.40;99.90
39997;DHT22;25688;52.338;21.072;2023-05-10T04:23:39;4.60;99.90
39997;DHT22;25688;52.338;21.072;2023-05-10T04:26:05;4.70;99.90
39997;DHT22;25688;52.338;21.072;2023-05-10T04:28:30;4.90;99.90
39997;DHT22;25688;52.338;21.072;2023-05-10T04:31:04;5.10;99.90
39997;DHT22;25688;52.338;21.072;2023-05-10T04:33:30;5.30;99.90
39997;DHT22;25688;52.338;21.072;2023-05-10T04:35:56;5.40;99.90
39997;DHT22;25688;52.338;21.072;2023-05-10T04:38:21;5.60;99.90
39997;DHT22;25688;52.338;21.072;2023-05-10T04:40:47;5.80;99.90
39997;DHT22;25688;52.338;21.072;2023-05-10T04:43:13;6.00;99.90
39997;DHT22;25688;52.338;21.072;2023-05-10T04:45:39;6.20;99.90
39997;DHT22;25688;52.338;21.072;2023-05-10T04:48:05;6.40;99.90
39997;DHT22;25688;52.338;21.072;2023-05-10T04:50:31;6.50;99.90
39997;DHT22;25688;52.338;21.072;2023-05-10T04:52:57;6.70;99.90
39997;DHT22;25688;52.338;21.072;2023-05-10T04:55:22;6.80;99.90
39997;DHT22;25688;52.338;21.072;2023-05-10T04:57:48;7.00;99.90
39997;DHT22;25688;52.338;21.072;2023-05-10T05:00:14;7.20;99.90
39997;DHT22;25688;52.338;21.072;2023-05-10T05:02:46;7.30;99.90
39997;DHT22;25688;52.338;21.072;2023-05-10T05:05:12;7.50;99.90
39997;DHT22;25688;52.338;21.072;2023-05-10T05:07:38;7.60;99.90
39997;DHT22;25688;52.338;21.072;2023-05-10T05:10:08;7.80;99.90
39997;DHT22;25688;52.338;21.072;2023-05-10T05:12:34;8.00;99.90
39997;DHT22;25688;52.338;21.072;2023-05-10T05:15:01;8.10;99.90
39997;DHT22;25688;52.338;21.072;2023-05-10T05:17:26;8.30;99.90
39997;DHT22;25688;52.338;21.072;2023-05-10T05:19:53;8.40;99.90
39997;DHT22;25688;52.338;21.072;2023-05-10T05:22:19;8.50;99.90
39997;DHT22;25688;52.338;21.072;2023-05-10T05:24:52;8.60;99.90
39997;DHT22;25688;52.338;21.072;2023-05-10T05:27:18;8.80;99.90
39997;DHT22;25688;52.338;21.072;2023-05-10T05:29:43;8.90;99.90
39997;DHT22;25688;52.338;21.072;2023-05-10T05:32:09;9.10;99.90
39997;DHT22;25688;52.338;21.072;2023-05-10T05:34:35;9.20;99.90
39997;DHT22;25688;52.338;21.072;2023-05-10T05:37:01;9.30;99.90
39997;DHT22;25688;52.338;21.072;2023-05-10T05:39:27;9.50;99.90
39997;DHT22;25688;52.338;21.072;2023-05-10T05:41:52;9.60;99.90
39997;DHT22;25688;52.338;21.072;2023-05-10T05:44:18;9.80;99.90
39997;DHT22;25688;52.338;21.072;2023-05-10T05:46:44;9.90;99.90
39997;DHT22;25688;52.338;21.072;2023-05-10T05:49:10;10.00;99.90
39997;DHT22;25688;52.338;21.072;2023-05-10T05:51:35;10.20;99.90
39997;DHT22;25688;52.338;21.072;2023-05-10T05:54:01;10.40;99.90
39997;DHT22;25688;52.338;21.072;2023-05-10T05:56:28;10.50;99.90
39997;DHT22;25688;52.338;21.072;2023-05-10T05:58:54;10.70;99.90
39997;DHT22;25688;52.338;21.072;2023-05-10T06:01:20;10.80;99.90
39997;DHT22;25688;52.338;21.072;2023-05-10T06:03:46;11.00;99.90
39997;DHT22;25688;52.338;21.072;2023-05-10T06:06:12;11.10;99.90
39997;DHT22;25688;52.338;21.072;2023-05-10T06:08:38;11.30;99.90
39997;DHT22;25688;52.338;21.072;2023-05-10T06:11:03;11.40;99.90
39997;DHT22;25688;52.338;21.072;2023-05-10T06:13:29;11.50;99.90
39997;DHT22;25688;52.338;21.072;2023-05-10T06:16:01;11.60;99.90
39997;DHT22;25688;52.338;21.072;2023-05-10T06:18:27;11.80;99.90
39997;DHT22;25688;52.338;21.072;2023-05-10T06:20:53;11.90;99.90
39997;DHT22;25688;52.338;21.072;2023-05-10T06:23:18;12.00;99.90
39997;DHT22;25688;52.338;21.072;2023-05-10T06:25:44;12.30;99.40
39997;DHT22;25688;52.338;21.072;2023-05-10T06:28:10;12.40;98.30
39997;DHT22;25688;52.338;21.072;2023-05-10T06:30:39;12.50;98.00
39997;DHT22;25688;52.338;21.072;2023-05-10T06:33:05;12.60;96.90
39997;DHT22;25688;52.338;21.072;2023-05-10T06:35:30;12.70;96.80
39997;DHT22;25688;52.338;21.072;2023-05-10T06:37:59;12.80;96.40
39997;DHT22;25688;52.338;21.072;2023-05-10T06:40:24;12.90;96.70
39997;DHT22;25688;52.338;21.072;2023-05-10T06:42:50;13.10;98.00
39997;DHT22;25688;52.338;21.072;2023-05-10T06:45:16;13.30;95.00
39997;DHT22;25688;52.338;21.072;2023-05-10T06:47:43;13.30;93.70
39997;DHT22;25688;52.338;21.072;2023-05-10T06:50:09;13.40;94.30
39997;DHT22;25688;52.338;21.072;2023-05-10T06:52:35;13.50;93.50
39997;DHT22;25688;52.338;21.072;2023-05-10T06:55:01;13.60;92.20
39997;DHT22;25688;52.338;21.072;2023-05-10T06:57:27;13.60;91.50
39997;DHT22;25688;52.338;21.072;2023-05-10T06:59:53;13.70;91.00
39997;DHT22;25688;52.338;21.072;2023-05-10T07:02:18;13.80;90.40
39997;DHT22;25688;52.338;21.072;2023-05-10T07:04:44;13.90;90.80
39997;DHT22;25688;52.338;21.072;2023-05-10T07:07:12;14.00;91.00
39997;DHT22;25688;52.338;21.072;2023-05-10T07:09:39;14.10;90.60
39997;DHT22;25688;52.338;21.072;2023-05-10T07:12:04;14.10;87.40
39997;DHT22;25688;52.338;21.072;2023-05-10T07:14:30;14.20;86.10
39997;DHT22;25688;52.338;21.072;2023-05-10T07:16:56;14.20;85.50
39997;DHT22;25688;52.338;21.072;2023-05-10T07:19:22;14.30;83.40
39997;DHT22;25688;52.338;21.072;2023-05-10T07:21:47;14.40;83.20
39997;DHT22;25688;52.338;21.072;2023-05-10T07:24:13;14.50;78.70
39997;DHT22;25688;52.338;21.072;2023-05-10T07:26:39;14.50;80.90
39997;DHT22;25688;52.338;21.072;2023-05-10T07:29:04;14.70;81.00
39997;DHT22;25688;52.338;21.072;2023-05-10T07:31:30;14.80;79.70
39997;DHT22;25688;52.338;21.072;2023-05-10T07:33:56;14.90;75.50
39997;DHT22;25688;52.338;21.072;2023-05-10T07:36:22;15.00;72.80
39997;DHT22;25688;52.338;21.072;2023-05-10T07:38:47;15.00;73.10
39997;DHT22;25688;52.338;21.072;2023-05-10T07:41:14;15.10;71.90
39997;DHT22;25688;52.338;21.072;2023-05-10T07:43:40;15.10;70.20
39997;DHT22;25688;52.338;21.072;2023-05-10T07:46:06;15.20;69.50
39997;DHT22;25688;52.338;21.072;2023-05-10T07:48:32;15.20;69.50
39997;DHT22;25688;52.338;21.072;2023-05-10T07:50:57;15.30;64.80
39997;DHT22;25688;52.338;21.072;2023-05-10T07:53:23;15.20;64.70
39997;DHT22;25688;52.338;21.072;2023-05-10T07:55:54;15.20;65.10
39997;DHT22;25688;52.338;21.072;2023-05-10T07:58:24;15.30;64.00
39997;DHT22;25688;52.338;21.072;2023-05-10T08:00:49;15.20;65.90
39997;DHT22;25688;52.338;21.072;2023-05-10T08:03:15;15.30;67.30
39997;DHT22;25688;52.338;21.072;2023-05-10T08:05:41;15.40;65.50
39997;DHT22;25688;52.338;21.072;2023-05-10T08:08:07;15.40;64.50
39997;DHT22;25688;52.338;21.072;2023-05-10T08:10:32;15.40;63.70
39997;DHT22;25688;52.338;21.072;2023-05-10T08:12:58;15.50;64.90
39997;DHT22;25688;52.338;21.072;2023-05-10T08:15:24;15.60;66.30
39997;DHT22;25688;52.338;21.072;2023-05-10T08:17:51;15.70;65.60
39997;DHT22;25688;52.338;21.072;2023-05-10T08:20:17;15.70;64.70
39997;DHT22;25688;52.338;21.072;2023-05-10T08:22:45;15.70;66.70
39997;DHT22;25688;52.338;21.072;2023-05-10T08:25:11;15.80;65.50
39997;DHT22;25688;52.338;21.072;2023-05-10T08:27:36;15.80;64.10
39997;DHT22;25688;52.338;21.072;2023-05-10T08:30:02;15.80;64.70
39997;DHT22;25688;52.338;21.072;2023-05-10T08:32:28;15.90;65.40
39997;DHT22;25688;52.338;21.072;2023-05-10T08:34:53;15.90;67.20
39997;DHT22;25688;52.338;21.072;2023-05-10T08:37:19;16.10;64.40
39997;DHT22;25688;52.338;21.072;2023-05-10T08:39:45;16.20;63.70
39997;DHT22;25688;52.338;21.072;2023-05-10T08:42:16;16.10;65.10
39997;DHT22;25688;52.338;21.072;2023-05-10T08:44:45;16.20;67.00
39997;DHT22;25688;52.338;21.072;2023-05-10T08:47:15;16.30;65.40
39997;DHT22;25688;52.338;21.072;2023-05-10T08:49:42;16.30;66.20
39997;DHT22;25688;52.338;21.072;2023-05-10T08:52:10;16.40;66.50
39997;DHT22;25688;52.338;21.072;2023-05-10T08:54:38;16.40;63.10
39997;DHT22;25688;52.338;21.072;2023-05-10T08:57:04;16.20;63.80
39997;DHT22;25688;52.338;21.072;2023-05-10T08:59:30;16.30;65.00
39997;DHT22;25688;52.338;21.072;2023-05-10T09:01:59;16.40;65.40
39997;DHT22;25688;52.338;21.072;2023-05-10T09:04:25;16.50;65.90
39997;DHT22;25688;52.338;21.072;2023-05-10T09:06:51;16.50;63.20
39997;DHT22;25688;52.338;21.072;2023-05-10T09:09:17;16.50;63.90
39997;DHT22;25688;52.338;21.072;2023-05-10T09:11:44;16.50;63.30
39997;DHT22;25688;52.338;21.072;2023-05-10T09:14:11;16.60;64.50
39997;DHT22;25688;52.338;21.072;2023-05-10T09:16:38;16.40;64.70
39997;DHT22;25688;52.338;21.072;2023-05-10T09:19:03;16.50;64.20
39997;DHT22;25688;52.338;21.072;2023-05-10T09:21:30;16.50;64.40
39997;DHT22;25688;52.338;21.072;2023-05-10T09:23:56;16.60;65.80
39997;DHT22;25688;52.338;21.072;2023-05-10T09:26:31;16.60;65.90
39997;DHT22;25688;52.338;21.072;2023-05-10T09:28:58;16.80;65.40
39997;DHT22;25688;52.338;21.072;2023-05-10T09:31:24;16.90;64.60
39997;DHT22;25688;52.338;21.072;2023-05-10T09:34:08;16.90;62.90
39997;DHT22;25688;52.338;21.072;2023-05-10T09:36:33;16.90;66.50
39997;DHT22;25688;52.338;21.072;2023-05-10T09:38:59;17.00;64.30
39997;DHT22;25688;52.338;21.072;2023-05-10T09:41:25;17.00;63.70
39997;DHT22;25688;52.338;21.072;2023-05-10T09:43:55;17.00;64.90
39997;DHT22;25688;52.338;21.072;2023-05-10T09:46:21;17.00;63.50
39997;DHT22;25688;52.338;21.072;2023-05-10T09:48:48;17.00;64.10
39997;DHT22;25688;52.338;21.072;2023-05-10T09:51:23;17.20;63.70
39997;DHT22;25688;52.338;21.072;2023-05-10T09:54:17;17.30;65.90
39997;DHT22;25688;52.338;21.072;2023-05-10T09:56:43;17.20;61.90
39997;DHT22;25688;52.338;21.072;2023-05-10T09:59:12;17.20;62.50
39997;DHT22;25688;52.338;21.072;2023-05-10T10:01:38;17.20;63.70
39997;DHT22;25688;52.338;21.072;2023-05-10T10:04:09;17.10;62.70
39997;DHT22;25688;52.338;21.072;2023-05-10T10:06:36;17.20;63.70
39997;DHT22;25688;52.338;21.072;2023-05-10T10:09:02;17.20;64.80
39997;DHT22;25688;52.338;21.072;2023-05-10T10:11:53;17.40;61.60
39997;DHT22;25688;52.338;21.072;2023-05-10T10:14:40;17.40;63.70
39997;DHT22;25688;52.338;21.072;2023-05-10T10:17:06;17.50;62.00
39997;DHT22;25688;52.338;21.072;2023-05-10T10:19:35;17.50;61.70
39997;DHT22;25688;52.338;21.072;2023-05-10T10:22:01;17.50;61.70
39997;DHT22;25688;52.338;21.072;2023-05-10T10:24:28;17.50;63.10
39997;DHT22;25688;52.338;21.072;2023-05-10T10:26:56;17.50;64.30
39997;DHT22;25688;52.338;21.072;2023-05-10T10:29:38;17.60;62.70
39997;DHT22;25688;52.338;21.072;2023-05-10T10:32:19;17.60;63.00
39997;DHT22;25688;52.338;21.072;2023-05-10T10:34:47;17.60;66.20
39997;DHT22;25688;52.338;21.072;2023-05-10T10:37:13;17.80;63.00
39997;DHT22;25688;52.338;21.072;2023-05-10T10:39:39;17.80;64.00
39997;DHT22;25688;52.338;21.072;2023-05-10T10:42:05;17.80;64.80
39997;DHT22;25688;52.338;21.072;2023-05-10T10:47:07;18.00;63.50
39997;DHT22;25688;52.338;21.072;2023-05-10T10:54:58;17.90;61.20
39997;DHT22;25688;52.338;21.072;2023-05-10T10:57:25;17.90;64.00
39997;DHT22;25688;52.338;21.072;2023-05-10T10:59:58;18.00;64.00
39997;DHT22;25688;52.338;21.072;2023-05-10T11:07:55;18.00;61.00
39997;DHT22;25688;52.338;21.072;2023-05-10T11:10:22;18.10;63.80
39997;DHT22;25688;52.338;21.072;2023-05-10T11:13:02;18.10;61.60
39997;DHT22;25688;52.338;21.072;2023-05-10T11:15:38;18.20;62.90
39997;DHT22;25688;52.338;21.072;2023-05-10T11:18:19;18.30;61.30
39997;DHT22;25688;52.338;21.072;2023-05-10T11:20:51;18.20;60.30
39997;DHT22;25688;52.338;21.072;2023-05-10T11:23:17;18.20;62.60
39997;DHT22;25688;52.338;21.072;2023-05-10T11:25:44;18.30;61.80
39997;DHT22;25688;52.338;21.072;2023-05-10T11:28:11;18.20;59.80
39997;DHT22;25688;52.338;21.072;2023-05-10T11:30:42;18.20;61.70
39997;DHT22;25688;52.338;21.072;2023-05-10T11:33:09;18.30;60.70
39997;DHT22;25688;52.338;21.072;2023-05-10T11:35:39;18.40;62.70
39997;DHT22;25688;52.338;21.072;2023-05-10T11:38:06;18.30;60.80
39997;DHT22;25688;52.338;21.072;2023-05-10T11:40:32;18.30;59.90
39997;DHT22;25688;52.338;21.072;2023-05-10T11:42:58;18.20;60.20
39997;DHT22;25688;52.338;21.072;2023-05-10T11:45:25;18.30;60.80
39997;DHT22;25688;52.338;21.072;2023-05-10T11:47:51;18.30;60.70
39997;DHT22;25688;52.338;21.072;2023-05-10T11:50:18;18.30;58.90
39997;DHT22;25688;52.338;21.072;2023-05-10T11:52:43;18.30;60.80
39997;DHT22;25688;52.338;21.072;2023-05-10T11:55:09;18.40;62.60
39997;DHT22;25688;52.338;21.072;2023-05-10T11:57:35;18.40;60.80
39997;DHT22;25688;52.338;21.072;2023-05-10T12:00:04;18.60;61.00
39997;DHT22;25688;52.338;21.072;2023-05-10T12:02:30;18.60;60.60
39997;DHT22;25688;52.338;21.072;2023-05-10T12:04:56;18.50;60.40
39997;DHT22;25688;52.338;21.072;2023-05-10T12:07:22;18.30;58.90
39997;DHT22;25688;52.338;21.072;2023-05-10T12:10:05;18.40;61.30
39997;DHT22;25688;52.338;21.072;2023-05-10T12:12:39;18.60;60.40
39997;DHT22;25688;52.338;21.072;2023-05-10T12:15:11;18.50;58.80
39997;DHT22;25688;52.338;21.072;2023-05-10T12:17:38;18.50;58.50
39997;DHT22;25688;52.338;21.072;2023-05-10T12:20:19;18.40;60.80
39997;DHT22;25688;52.338;21.072;2023-05-10T12:22:50;18.50;62.70
39997;DHT22;25688;52.338;21.072;2023-05-10T12:25:17;18.60;61.70
39997;DHT22;25688;52.338;21.072;2023-05-10T12:27:53;18.60;60.20
39997;DHT22;25688;52.338;21.072;2023-05-10T12:30:28;18.60;60.00
39997;DHT22;25688;52.338;21.072;2023-05-10T12:32:58;18.60;59.00
39997;DHT22;25688;52.338;21.072;2023-05-10T12:35:24;18.50;60.30
39997;DHT22;25688;52.338;21.072;2023-05-10T12:37:51;18.70;60.20
39997;DHT22;25688;52.338;21.072;2023-05-10T12:40:17;18.70;59.70
39997;DHT22;25688;52.338;21.072;2023-05-10T12:42:42;18.70;63.60
39997;DHT22;25688;52.338;21.072;2023-05-10T12:45:11;18.80;61.70
39997;DHT22;25688;52.338;21.072;2023-05-10T12:47:37;18.80;60.60
39997;DHT22;25688;52.338;21.072;2023-05-10T12:50:04;18.80;61.30
39997;DHT22;25688;52.338;21.072;2023-05-10T12:52:30;18.80;62.50
39997;DHT22;25688;52.338;21.072;2023-05-10T12:54:58;18.80;60.10
39997;DHT22;25688;52.338;21.072;2023-05-10T12:57:24;18.70;59.00
39997;DHT22;25688;52.338;21.072;2023-05-10T12:59:50;18.60;60.20
39997;DHT22;25688;52.338;21.072;2023-05-10T13:02:15;18.60;59.80
39997;DHT22;25688;52.338;21.072;2023-05-10T13:04:44;18.60;60.20
39997;DHT22;25688;52.338;21.072;2023-05-10T13:07:10;18.60;61.00
39997;DHT22;25688;52.338;21.072;2023-05-10T13:09:36;18.60;60.20
39997;DHT22;25688;52.338;21.072;2023-05-10T13:12:01;18.50;60.60
39997;DHT22;25688;52.338;21.072;2023-05-10T13:14:29;18.60;61.80
39997;DHT22;25688;52.338;21.072;2023-05-10T13:16:55;18.60;60.90
39997;DHT22;25688;52.338;21.072;2023-05-10T13:19:21;18.60;60.20
39997;DHT22;25688;52.338;21.072;2023-05-10T13:21:47;18.60;61.40
39997;DHT22;25688;52.338;21.072;2023-05-10T13:24:13;18.60;61.00
39997;DHT22;25688;52.338;21.072;2023-05-10T13:26:40;18.60;62.40
39997;DHT22;25688;52.338;21.072;2023-05-10T13:29:06;18.60;61.10
39997;DHT22;25688;52.338;21.072;2023-05-10T13:31:32;18.50;61.80
39997;DHT22;25688;52.338;21.072;2023-05-10T13:33:58;18.40;63.10
39997;DHT22;25688;52.338;21.072;2023-05-10T13:36:24;18.50;62.10
39997;DHT22;25688;52.338;21.072;2023-05-10T13:38:50;18.50;62.20
39997;DHT22;25688;52.338;21.072;2023-05-10T13:41:15;18.50;62.90
39997;DHT22;25688;52.338;21.072;2023-05-10T13:43:41;18.60;60.30
39997;DHT22;25688;52.338;21.072;2023-05-10T13:46:07;18.50;59.40
39997;DHT22;25688;52.338;21.072;2023-05-10T13:48:32;18.40;59.80
39997;DHT22;25688;52.338;21.072;2023-05-10T13:50:58;18.40;60.70
39997;DHT22;25688;52.338;21.072;2023-05-10T13:53:24;18.40;63.40
39997;DHT22;25688;52.338;21.072;2023-05-10T13:59:03;18.50;62.00
39997;DHT22;25688;52.338;21.072;2023-05-10T14:01:29;18.40;60.60
39997;DHT22;25688;52.338;21.072;2023-05-10T14:03:55;18.30;60.10
39997;DHT22;25688;52.338;21.072;2023-05-10T14:06:21;18.30;59.00
39997;DHT22;25688;52.338;21.072;2023-05-10T14:08:47;18.30;59.00
39997;DHT22;25688;52.338;21.072;2023-05-10T14:11:13;18.20;58.40
39997;DHT22;25688;52.338;21.072;2023-05-10T14:13:39;18.10;60.00
39997;DHT22;25688;52.338;21.072;2023-05-10T14:16:05;18.10;59.90
39997;DHT22;25688;52.338;21.072;2023-05-10T14:18:31;18.00;58.10
39997;DHT22;25688;52.338;21.072;2023-05-10T14:20:56;18.00;59.90
39997;DHT22;25688;52.338;21.072;2023-05-10T14:23:23;18.00;61.90
39997;DHT22;25688;52.338;21.072;2023-05-10T14:25:53;18.00;58.60
39997;DHT22;25688;52.338;21.072;2023-05-10T14:28:19;18.00;59.00
39997;DHT22;25688;52.338;21.072;2023-05-10T14:30:46;17.90;59.60
39997;DHT22;25688;52.338;21.072;2023-05-10T14:33:12;18.00;58.70
39997;DHT22;25688;52.338;21.072;2023-05-10T14:35:38;18.00;59.30
39997;DHT22;25688;52.338;21.072;2023-05-10T14:38:04;18.00;58.90
39997;DHT22;25688;52.338;21.072;2023-05-10T14:40:30;17.90;59.80
39997;DHT22;25688;52.338;21.072;2023-05-10T14:42:56;17.90;60.80
39997;DHT22;25688;52.338;21.072;2023-05-10T14:45:22;17.90;58.40
39997;DHT22;25688;52.338;21.072;2023-05-10T14:47:49;17.80;58.80
39997;DHT22;25688;52.338;21.072;2023-05-10T14:50:15;17.70;59.70
39997;DHT22;25688;52.338;21.072;2023-05-10T14:56:00;17.60;58.40
39997;DHT22;25688;52.338;21.072;2023-05-10T14:58:29;17.50;59.00
39997;DHT22;25688;52.338;21.072;2023-05-10T15:00:56;17.50;58.40
39997;DHT22;25688;52.338;21.072;2023-05-10T15:03:22;17.40;57.90
39997;DHT22;25688;52.338;21.072;2023-05-10T15:05:48;17.40;59.00
39997;DHT22;25688;52.338;21.072;2023-05-10T15:08:14;17.40;59.50
39997;DHT22;25688;52.338;21.072;2023-05-10T15:10:40;17.40;59.50
39997;DHT22;25688;52.338;21.072;2023-05-10T15:13:06;17.30;59.60
39997;DHT22;25688;52.338;21.072;2023-05-10T15:15:33;17.30;58.70
39997;DHT22;25688;52.338;21.072;2023-05-10T15:17:59;17.30;58.00
39997;DHT22;25688;52.338;21.072;2023-05-10T15:20:25;17.20;59.90
39997;DHT22;25688;52.338;21.072;2023-05-10T15:22:51;17.20;60.00
39997;DHT22;25688;52.338;21.072;2023-05-10T15:25:19;17.20;59.60
39997;DHT22;25688;52.338;21.072;2023-05-10T15:27:55;17.10;59.70
39997;DHT22;25688;52.338;21.072;2023-05-10T15:30:22;17.10;59.80
39997;DHT22;25688;52.338;21.072;2023-05-10T15:32:52;17.00;59.40
39997;DHT22;25688;52.338;21.072;2023-05-10T15:35:20;17.00;59.30
39997;DHT22;25688;52.338;21.072;2023-05-10T15:37:55;17.00;59.50
39997;DHT22;25688;52.338;21.072;2023-05-10T15:40:20;17.00;60.40
39997;DHT22;25688;52.338;21.072;2023-05-10T15:42:49;16.90;59.50
39997;DHT22;25688;52.338;21.072;2023-05-10T15:45:28;16.80;59.30
39997;DHT22;25688;52.338;21.072;2023-05-10T15:47:55;16.80;59.50
39997;DHT22;25688;52.338;21.072;2023-05-10T15:50:22;16.80;60.30
39997;DHT22;25688;52.338;21.072;2023-05-10T15:52:48;16.80;58.80
39997;DHT22;25688;52.338;21.072;2023-05-10T15:55:14;16.70;58.70
39997;DHT22;25688;52.338;21.072;2023-05-10T15:57:40;16.70;58.10